createdAt,value
2018-02-18T00:01:59.570Z,16.67
2018-02-18T00:04:27.216Z,20.77
2018-02-18T00:06:54.891Z,21.47
2018-02-18T00:09:22.556Z,22.33
2018-02-18T00:11:50.248Z,22.93
2018-02-18T00:14:21.339Z,21.77
2018-02-18T00:16:49.026Z,22.90
2018-02-18T00:19:16.687Z,23.03
2018-02-18T00:21:45.121Z,19.87
2018-02-18T00:24:12.789Z,19.00
2018-02-18T00:26:40.420Z,18.60
2018-02-18T00:29:08.095Z,17.90
2018-02-18T00:31:35.762Z,17.87
2018-02-18T00:34:03.409Z,17.53
2018-02-18T00:36:31.122Z,16.77
2018-02-18T00:38:58.811Z,17.10
2018-02-18T00:41:26.476Z,17.10
2018-02-18T00:43:54.124Z,17.77
2018-02-18T00:46:22.563Z,18.53
2018-02-18T00:48:50.218Z,15.87
2018-02-18T00:51:17.857Z,18.70
2018-02-18T00:53:45.499Z,19.47
2018-02-18T00:56:13.160Z,18.33
2018-02-18T00:58:40.823Z,19.23
2018-02-18T01:01:08.523Z,18.53
2018-02-18T01:03:36.190Z,17.73
2018-02-18T01:06:03.883Z,16.57
2018-02-18T01:08:32.285Z,18.23
2018-02-18T01:11:00.777Z,17.47
2018-02-18T01:13:28.497Z,17.30
2018-02-18T01:15:56.906Z,17.40
2018-02-18T01:18:24.568Z,17.77
2018-02-18T01:20:52.242Z,17.97
2018-02-18T01:23:19.915Z,17.47
2018-02-18T01:25:49.369Z,17.17
2018-02-18T01:28:17.881Z,17.50
2018-02-18T01:30:45.595Z,17.10
2018-02-18T01:33:13.258Z,17.43
2018-02-18T01:35:40.924Z,17.33
2018-02-18T01:38:09.400Z,17.80
2018-02-18T01:40:37.054Z,17.17
2018-02-18T01:43:04.712Z,16.63
2018-02-18T01:45:32.387Z,16.73
2018-02-18T01:48:00.891Z,17.40
2018-02-18T01:50:36.551Z,17.40
2018-02-18T01:53:04.295Z,18.13
2018-02-18T01:55:31.963Z,17.27
2018-02-18T01:57:59.626Z,17.20
2018-02-18T02:00:27.287Z,17.13
2018-02-18T02:02:54.947Z,17.77
2018-02-18T02:05:22.614Z,17.43
2018-02-18T02:07:50.272Z,17.53
2018-02-18T02:10:17.943Z,17.03
2018-02-18T02:12:45.601Z,17.63
2018-02-18T02:15:13.256Z,17.27
2018-02-18T02:17:40.913Z,18.37
2018-02-18T02:20:08.587Z,19.07
2018-02-18T02:22:36.252Z,19.23
2018-02-18T02:25:03.910Z,19.47
2018-02-18T02:27:31.562Z,20.17
2018-02-18T02:29:59.230Z,19.10
2018-02-18T02:32:26.876Z,19.67
2018-02-18T02:34:54.529Z,20.17
2018-02-18T02:37:22.276Z,18.67
2018-02-18T02:39:50.716Z,19.90
2018-02-18T02:42:18.412Z,20.63
2018-02-18T02:44:46.820Z,21.00
2018-02-18T02:47:14.506Z,20.37
2018-02-18T02:49:42.957Z,19.93
2018-02-18T02:52:10.656Z,21.13
2018-02-18T02:54:38.317Z,20.87
2018-02-18T02:57:05.971Z,20.27
2018-02-18T02:59:33.613Z,22.10
2018-02-18T03:02:01.470Z,22.00
2018-02-18T03:04:29.128Z,21.27
2018-02-18T03:09:26.659Z,22.50
2018-02-18T03:11:54.330Z,21.63
2018-02-18T03:14:22.784Z,22.00
2018-02-18T03:16:50.552Z,21.63
2018-02-18T03:19:18.276Z,21.00
2018-02-18T03:21:46.002Z,20.47
2018-02-18T03:24:14.529Z,21.67
2018-02-18T03:26:42.262Z,20.93
2018-02-18T03:29:10.038Z,20.17
2018-02-18T03:31:37.764Z,20.67
2018-02-18T03:34:06.274Z,22.17
2018-02-18T03:36:33.998Z,21.70
2018-02-18T03:39:01.742Z,21.43
2018-02-18T03:41:29.472Z,21.47
2018-02-18T03:43:57.224Z,22.00
2018-02-18T03:46:24.960Z,22.07
2018-02-18T03:48:53.471Z,23.13
2018-02-18T03:51:21.197Z,23.23
2018-02-18T03:53:49.678Z,22.90
2018-02-18T03:56:18.188Z,22.60
2018-02-18T03:58:45.928Z,22.17
2018-02-18T04:01:14.432Z,22.07
2018-02-18T04:03:42.221Z,21.77
2018-02-18T04:06:09.996Z,21.57
2018-02-18T04:08:37.741Z,21.77
2018-02-18T04:11:05.693Z,22.10
2018-02-18T04:13:33.430Z,22.47
2018-02-18T04:16:01.899Z,23.53
2018-02-18T04:18:30.436Z,22.60
2018-02-18T04:20:58.177Z,23.10
2018-02-18T04:23:25.932Z,24.20
2018-02-18T04:25:53.703Z,23.33
2018-02-18T04:28:21.425Z,22.90
2018-02-18T04:30:49.148Z,22.73
2018-02-18T04:33:16.856Z,24.63
2018-02-18T04:35:45.356Z,24.77
2018-02-18T04:38:13.093Z,25.17
2018-02-18T04:40:41.579Z,22.93
2018-02-18T04:43:10.082Z,24.33
2018-02-18T04:45:37.812Z,23.07
2018-02-18T04:48:06.295Z,24.53
2018-02-18T04:50:34.829Z,23.43
2018-02-18T04:53:02.575Z,22.70
2018-02-18T04:55:30.307Z,21.60
2018-02-18T04:57:58.851Z,21.90
2018-02-18T05:00:26.591Z,22.23
2018-02-18T05:02:54.339Z,21.20
2018-02-18T05:05:22.623Z,23.37
2018-02-18T05:07:50.375Z,21.77
2018-02-18T05:10:18.120Z,21.73
2018-02-18T05:12:46.596Z,21.97
2018-02-18T05:15:15.125Z,22.90
2018-02-18T05:17:42.904Z,22.63
2018-02-18T05:20:10.628Z,22.77
2018-02-18T05:22:38.327Z,24.47
2018-02-18T05:25:06.069Z,23.87
2018-02-18T05:27:33.788Z,23.07
2018-02-18T05:30:02.288Z,24.40
2018-02-18T05:32:30.066Z,22.83
2018-02-18T05:34:57.810Z,24.27
2018-02-18T05:37:25.522Z,24.10
2018-02-18T05:39:53.254Z,23.97
2018-02-18T05:42:20.968Z,23.30
2018-02-18T05:44:49.467Z,23.23
2018-02-18T05:47:17.963Z,24.43
2018-02-18T05:49:45.674Z,23.80
2018-02-18T05:52:13.392Z,23.20
2018-02-18T05:54:41.132Z,24.33
2018-02-18T05:57:09.734Z,24.23
2018-02-18T05:59:37.466Z,24.63
2018-02-18T06:02:05.975Z,24.07
2018-02-18T06:04:33.690Z,25.33
2018-02-18T06:07:01.456Z,24.97
2018-02-18T06:09:29.208Z,24.53
2018-02-18T06:11:56.980Z,24.73
2018-02-18T06:14:24.711Z,24.70
2018-02-18T06:16:52.433Z,24.90
2018-02-18T06:19:20.922Z,24.67
2018-02-18T06:21:48.668Z,23.70
2018-02-18T06:24:17.186Z,24.97
2018-02-18T06:26:44.935Z,24.83
2018-02-18T06:29:12.675Z,26.43
2018-02-18T06:31:41.156Z,25.67
2018-02-18T06:34:09.655Z,24.83
2018-02-18T06:36:37.397Z,26.03
2018-02-18T06:39:05.930Z,25.27
2018-02-18T06:41:33.722Z,24.60
2018-02-18T06:44:01.449Z,24.60
2018-02-18T06:46:29.170Z,24.37
2018-02-18T06:48:57.677Z,24.60
2018-02-18T06:51:25.434Z,26.23
2018-02-18T06:53:53.227Z,26.47
2018-02-18T06:56:20.961Z,29.30
2018-02-18T06:58:48.700Z,28.27
2018-02-18T07:01:17.239Z,26.60
2018-02-18T07:03:45.093Z,27.70
2018-02-18T07:06:12.831Z,25.07
2018-02-18T07:08:40.561Z,24.50
2018-02-18T07:11:09.060Z,25.10
2018-02-18T07:13:36.780Z,24.50
2018-02-18T07:16:04.517Z,24.00
2018-02-18T07:18:32.289Z,24.43
2018-02-18T07:21:00.038Z,24.27
2018-02-18T07:23:27.768Z,23.77
2018-02-18T07:25:56.240Z,25.07
2018-02-18T07:28:24.759Z,24.07
2018-02-18T07:30:52.480Z,24.90
2018-02-18T07:33:20.966Z,25.53
2018-02-18T07:35:49.465Z,24.47
2018-02-18T07:38:17.200Z,24.90
2018-02-18T07:40:45.680Z,23.53
2018-02-18T07:43:14.190Z,25.13
2018-02-18T07:45:41.918Z,24.93
2018-02-18T07:48:10.411Z,25.50
2018-02-18T07:50:38.900Z,25.20
2018-02-18T07:53:06.632Z,25.07
2018-02-18T07:55:35.173Z,25.23
2018-02-18T07:58:02.882Z,24.57
2018-02-18T08:00:31.413Z,25.03
2018-02-18T08:02:59.141Z,24.50
2018-02-18T08:05:27.683Z,24.50
2018-02-18T08:07:55.436Z,24.67
2018-02-18T08:10:23.146Z,26.03
2018-02-18T08:12:51.656Z,24.80
2018-02-18T08:15:19.404Z,24.70
2018-02-18T08:17:47.139Z,24.20
2018-02-18T08:20:15.640Z,25.00
2018-02-18T08:22:43.395Z,24.97
2018-02-18T08:25:11.875Z,25.53
2018-02-18T08:27:40.351Z,25.93
2018-02-18T08:30:08.865Z,26.53
2018-02-18T08:32:36.651Z,24.43
2018-02-18T08:35:04.363Z,25.87
2018-02-18T08:37:32.089Z,27.00
2018-02-18T08:39:59.831Z,26.73
2018-02-18T08:42:27.574Z,27.43
2018-02-18T08:44:55.319Z,24.73
2018-02-18T08:47:23.053Z,25.83
2018-02-18T08:49:51.562Z,24.90
2018-02-18T08:52:19.330Z,25.87
2018-02-18T08:54:47.065Z,24.70
2018-02-18T08:57:15.585Z,27.87
2018-02-18T08:59:43.370Z,26.60
2018-02-18T09:02:11.100Z,26.87
2018-02-18T09:04:38.823Z,26.80
2018-02-18T09:07:06.674Z,28.37
2018-02-18T09:09:34.393Z,27.93
2018-02-18T09:12:02.188Z,29.30
2018-02-18T09:14:29.942Z,28.10
2018-02-18T09:16:57.681Z,26.40
2018-02-18T09:19:25.440Z,28.80
2018-02-18T09:21:53.160Z,28.27
2018-02-18T09:24:22.368Z,29.27
2018-02-18T09:26:51.055Z,29.90
2018-02-18T09:29:19.564Z,31.47
2018-02-18T09:31:47.326Z,30.57
2018-02-18T09:34:15.069Z,31.37
2018-02-18T09:36:43.634Z,30.90
2018-02-18T09:39:12.134Z,31.13
2018-02-18T09:41:40.619Z,30.93
2018-02-18T09:44:08.323Z,33.33
2018-02-18T09:46:36.069Z,33.23
2018-02-18T09:49:04.471Z,34.07
2018-02-18T09:51:32.275Z,33.67
2018-02-18T09:54:00.763Z,34.73
2018-02-18T09:56:28.497Z,35.80
2018-02-18T09:58:56.380Z,35.20
2018-02-18T10:01:24.876Z,33.30
2018-02-18T10:03:52.610Z,36.20
2018-02-18T10:06:21.114Z,35.90
2018-02-18T10:08:49.115Z,35.83
2018-02-18T10:11:16.844Z,35.17
2018-02-18T10:13:44.566Z,36.77
2018-02-18T10:16:12.287Z,34.23
2018-02-18T10:18:40.039Z,35.33
2018-02-18T10:21:07.764Z,36.53
2018-02-18T10:23:35.526Z,34.43
2018-02-18T10:26:03.253Z,36.70
2018-02-18T10:28:30.990Z,35.23
2018-02-18T10:30:58.706Z,35.37
2018-02-18T10:33:26.440Z,33.43
2018-02-18T10:35:54.149Z,33.10
2018-02-18T10:38:22.666Z,33.67
2018-02-18T10:40:50.435Z,33.63
2018-02-18T10:43:18.168Z,33.43
2018-02-18T10:45:45.932Z,30.30
2018-02-18T10:48:13.764Z,32.87
2018-02-18T10:50:41.468Z,34.07
2018-02-18T10:53:09.213Z,33.83
2018-02-18T10:55:37.703Z,34.83
2018-02-18T10:58:05.491Z,34.60
2018-02-18T11:00:33.229Z,33.10
2018-02-18T11:03:01.109Z,34.50
2018-02-18T11:05:28.828Z,33.90
2018-02-18T11:07:56.551Z,34.93
2018-02-18T11:10:24.285Z,35.03
2018-02-18T11:12:52.003Z,34.43
2018-02-18T11:15:19.752Z,35.03
2018-02-18T11:17:47.483Z,34.70
2018-02-18T11:20:15.241Z,33.87
2018-02-18T11:23:13.209Z,33.97
2018-02-18T11:25:40.969Z,33.37
2018-02-18T11:28:08.707Z,33.40
2018-02-18T11:30:37.205Z,33.53
2018-02-18T11:33:04.916Z,35.43
2018-02-18T11:35:32.666Z,33.00
2018-02-18T11:38:00.466Z,35.70
2018-02-18T11:43:25.564Z,34.53
2018-02-18T11:45:53.315Z,35.30
2018-02-18T11:48:21.816Z,33.40
2018-02-18T11:50:49.524Z,35.13
2018-02-18T11:53:17.317Z,35.33
2018-02-18T11:55:45.105Z,34.53
2018-02-18T11:58:13.624Z,35.83
2018-02-18T12:00:41.412Z,34.23
2018-02-18T12:03:09.184Z,34.80
2018-02-18T12:05:36.949Z,36.20
2018-02-18T12:08:04.688Z,37.10
2018-02-18T12:10:32.499Z,36.87
2018-02-18T12:13:00.227Z,37.90
2018-02-18T12:15:27.946Z,36.07
2018-02-18T12:17:56.428Z,35.40
2018-02-18T12:20:24.902Z,35.47
2018-02-18T12:22:53.398Z,36.93
2018-02-18T12:25:21.150Z,33.63
2018-02-18T12:27:49.888Z,34.37
2018-02-18T12:30:18.462Z,34.37
2018-02-18T12:32:46.199Z,33.07
2018-02-18T12:35:13.948Z,33.73
2018-02-18T12:37:42.478Z,35.73
2018-02-18T12:40:10.196Z,35.97
2018-02-18T12:42:38.686Z,35.63
2018-02-18T12:45:07.360Z,37.00
2018-02-18T12:47:35.862Z,37.40
2018-02-18T12:50:03.567Z,37.53
2018-02-18T12:52:31.215Z,36.90
2018-02-18T12:54:58.874Z,36.57
2018-02-18T12:57:26.582Z,36.10
2018-02-18T12:59:54.228Z,38.20
2018-02-18T13:02:22.675Z,38.80
2018-02-18T13:04:50.334Z,39.23
2018-02-18T13:07:18.028Z,37.50
2018-02-18T13:09:46.461Z,40.07
2018-02-18T13:12:14.118Z,36.17
2018-02-18T13:14:41.823Z,39.07
2018-02-18T13:17:09.463Z,37.50
2018-02-18T13:19:37.110Z,37.90
2018-02-18T13:22:04.779Z,38.77
2018-02-18T13:24:32.425Z,38.23
2018-02-18T13:27:00.082Z,39.87
2018-02-18T13:29:27.728Z,37.90
2018-02-18T13:32:15.400Z,37.17
2018-02-18T13:34:43.071Z,38.10
2018-02-18T13:37:10.735Z,37.90
2018-02-18T13:39:38.383Z,36.97
2018-02-18T13:42:06.050Z,37.33
2018-02-18T13:44:33.718Z,35.87
2018-02-18T13:47:02.160Z,35.53
2018-02-18T13:49:29.859Z,35.63
2018-02-18T13:51:57.523Z,34.10
2018-02-18T13:54:25.935Z,33.33
2018-02-18T13:56:53.587Z,31.80
2018-02-18T13:59:21.244Z,33.53
2018-02-18T14:01:48.890Z,32.00
2018-02-18T14:04:17.316Z,32.53
2018-02-18T14:06:44.995Z,33.83
2018-02-18T14:09:13.435Z,31.33
2018-02-18T14:11:41.100Z,32.07
2018-02-18T14:14:08.792Z,32.33
2018-02-18T14:16:36.474Z,30.07
2018-02-18T14:19:04.239Z,30.63
2018-02-18T14:21:32.664Z,30.87
2018-02-18T14:24:00.346Z,33.00
2018-02-18T14:26:28.001Z,32.63
2018-02-18T14:28:55.662Z,32.30
2018-02-18T14:31:23.339Z,32.20
2018-02-18T14:33:50.984Z,31.37
2018-02-18T14:36:18.641Z,31.23
2018-02-18T14:38:46.280Z,29.70
2018-02-18T14:41:25.745Z,29.40
2018-02-18T14:44:05.303Z,28.93
2018-02-18T14:46:58.585Z,25.77
2018-02-18T14:49:38.832Z,27.10
2018-02-18T14:52:18.380Z,27.87
2018-02-18T14:55:11.331Z,27.57
2018-02-18T14:57:39.746Z,26.47
2018-02-18T15:00:07.423Z,27.33
2018-02-18T15:02:35.065Z,27.40
2018-02-18T15:05:02.727Z,26.80
2018-02-18T15:07:30.402Z,26.63
2018-02-18T15:09:58.044Z,26.80
2018-02-18T15:12:25.713Z,26.80
2018-02-18T15:14:53.366Z,25.07
2018-02-18T15:17:21.015Z,25.17
2018-02-18T15:19:48.670Z,26.73
2018-02-18T15:22:17.089Z,24.50
2018-02-18T15:24:44.756Z,26.10
2018-02-18T15:27:12.425Z,26.73
2018-02-18T15:29:40.125Z,24.30
2018-02-18T15:32:08.558Z,24.10
2018-02-18T15:34:36.314Z,27.03
2018-02-18T15:37:03.963Z,24.30
2018-02-18T15:39:31.620Z,26.13
2018-02-18T15:41:59.274Z,24.90
2018-02-18T15:44:26.935Z,24.63
2018-02-18T15:46:54.639Z,22.70
2018-02-18T15:49:22.302Z,24.07
2018-02-18T15:51:50.145Z,24.17
2018-02-18T15:54:17.832Z,23.73
2018-02-18T15:56:45.503Z,23.27
2018-02-18T15:59:13.926Z,21.27
2018-02-18T16:01:41.583Z,21.50
2018-02-18T16:04:09.230Z,21.60
2018-02-18T16:06:36.923Z,21.23
2018-02-18T16:09:04.658Z,19.83
2018-02-18T16:11:32.325Z,18.37
2018-02-18T16:13:59.984Z,18.80
2018-02-18T16:16:27.670Z,18.40
2018-02-18T16:18:55.943Z,17.40
2018-02-18T16:21:23.659Z,15.77
2018-02-18T16:23:52.081Z,15.13
2018-02-18T16:26:19.760Z,13.67
2018-02-18T16:28:47.419Z,13.17
2018-02-18T16:31:15.095Z,12.60
2018-02-18T16:33:42.749Z,12.40
2018-02-18T16:36:10.407Z,12.07
2018-02-18T16:38:38.098Z,11.37
2018-02-18T16:41:06.660Z,10.00
2018-02-18T16:43:34.339Z,9.20
2018-02-18T16:46:02.760Z,9.00
2018-02-18T16:48:30.430Z,8.90
2018-02-18T16:50:58.693Z,7.87
2018-02-18T16:53:26.379Z,7.83
2018-02-18T16:55:54.024Z,6.70
2018-02-18T16:58:21.667Z,6.47
2018-02-18T17:00:49.305Z,7.07
2018-02-18T17:03:17.798Z,5.83
2018-02-18T17:05:45.438Z,5.37
2018-02-18T17:08:13.875Z,4.93
2018-02-18T17:10:41.555Z,3.80
2018-02-18T17:13:09.197Z,4.07
2018-02-18T17:15:36.841Z,3.90
2018-02-18T17:18:04.546Z,3.30
2018-02-18T17:20:32.176Z,3.67
2018-02-18T17:22:59.880Z,3.10
2018-02-18T17:25:28.295Z,3.33
2018-02-18T17:27:55.930Z,2.97
2018-02-18T17:30:23.583Z,3.00
2018-02-18T17:32:52.010Z,2.40
2018-02-18T17:35:19.651Z,2.70
2018-02-18T17:37:47.299Z,3.23
2018-02-18T17:40:14.940Z,3.20
2018-02-18T17:42:43.348Z,3.53
2018-02-18T17:45:11.000Z,3.10
2018-02-18T17:47:38.645Z,2.77
2018-02-18T17:50:06.295Z,3.37
2018-02-18T17:52:34.714Z,2.90
2018-02-18T17:55:02.412Z,2.80
2018-02-18T17:57:30.070Z,2.60
2018-02-18T17:59:57.735Z,3.10
2018-02-18T18:02:25.424Z,2.83
2018-02-18T18:04:53.826Z,3.10
2018-02-18T18:07:21.480Z,3.10
2018-02-18T18:09:49.117Z,3.00
2018-02-18T18:12:17.536Z,3.43
2018-02-18T18:14:45.186Z,3.10
2018-02-18T18:17:12.821Z,3.10
2018-02-18T18:19:41.239Z,3.30
2018-02-18T18:22:08.902Z,2.90
2018-02-18T18:24:36.619Z,3.10
2018-02-18T18:27:05.035Z,2.87
2018-02-18T18:29:32.704Z,3.00
2018-02-18T18:32:00.381Z,2.87
2018-02-18T18:34:28.049Z,3.23
2018-02-18T18:36:55.680Z,3.30
2018-02-18T18:39:23.341Z,3.30
2018-02-18T18:41:50.982Z,3.17
2018-02-18T18:44:18.650Z,3.40
2018-02-18T18:46:46.332Z,3.30
2018-02-18T18:49:13.993Z,3.30
2018-02-18T18:51:41.636Z,3.30
2018-02-18T18:54:09.316Z,2.93
2018-02-18T18:56:36.971Z,2.77
2018-02-18T18:59:04.631Z,3.23
2018-02-18T19:01:32.279Z,3.40
2018-02-18T19:03:59.928Z,3.43
2018-02-18T19:06:27.600Z,2.93
2018-02-18T19:08:55.244Z,3.30
2018-02-18T19:11:22.919Z,3.17
2018-02-18T19:13:51.210Z,3.57
2018-02-18T19:16:18.850Z,3.17
2018-02-18T19:18:46.520Z,3.57
2018-02-18T19:21:14.174Z,3.00
2018-02-18T19:23:41.827Z,3.40
2018-02-18T19:26:09.464Z,3.30
2018-02-18T19:28:37.887Z,2.73
2018-02-18T19:31:05.540Z,3.20
2018-02-18T19:33:33.205Z,3.17
2018-02-18T19:36:00.859Z,3.23
2018-02-18T19:38:28.520Z,2.93
2018-02-18T19:40:56.241Z,2.80
2018-02-18T19:43:24.786Z,2.87
2018-02-18T19:45:53.241Z,3.57
2018-02-18T19:48:20.933Z,3.00
2018-02-18T19:50:48.603Z,2.80
2018-02-18T19:53:16.240Z,2.97
2018-02-18T19:55:43.906Z,3.17
2018-02-18T19:58:11.549Z,3.07
2018-02-18T20:00:39.190Z,3.30
2018-02-18T20:03:06.832Z,2.53
2018-02-18T20:05:35.242Z,2.97
2018-02-18T20:08:02.891Z,3.33
2018-02-18T20:10:31.483Z,2.47
2018-02-18T20:12:59.152Z,2.60
2018-02-18T20:15:26.803Z,3.20
2018-02-18T20:17:54.466Z,3.30
2018-02-18T20:20:22.137Z,2.63
2018-02-18T20:22:49.788Z,3.37
2018-02-18T20:25:17.749Z,3.00
2018-02-18T20:27:45.388Z,3.17
2018-02-18T20:30:13.056Z,2.73
2018-02-18T20:32:40.763Z,3.07
2018-02-18T20:35:08.424Z,3.20
2018-02-18T20:37:36.064Z,2.80
2018-02-18T20:40:04.563Z,3.17
2018-02-18T20:42:32.237Z,3.37
2018-02-18T20:45:00.047Z,3.33
2018-02-18T20:47:27.713Z,3.20
2018-02-18T20:49:55.376Z,3.10
2018-02-18T20:52:23.036Z,2.63
2018-02-18T20:54:50.995Z,2.80
2018-02-18T20:57:18.748Z,3.10
2018-02-18T20:59:46.407Z,2.93
2018-02-18T21:02:16.506Z,3.10
2018-02-18T21:04:44.966Z,3.27
2018-02-18T21:07:12.619Z,2.87
2018-02-18T21:09:41.147Z,3.00
2018-02-18T21:12:08.834Z,3.40
2018-02-18T21:14:36.531Z,3.50
2018-02-18T21:17:04.315Z,3.27
2018-02-18T21:19:32.759Z,3.50
2018-02-18T21:22:01.212Z,3.20
2018-02-18T21:24:28.861Z,3.27
2018-02-18T21:26:56.539Z,3.23
2018-02-18T21:29:24.856Z,3.33
2018-02-18T21:31:52.555Z,3.30
2018-02-18T21:34:20.966Z,4.07
2018-02-18T21:36:48.619Z,3.60
2018-02-18T21:39:16.284Z,4.10
2018-02-18T21:41:44.833Z,4.30
2018-02-18T21:44:12.500Z,4.50
2018-02-18T21:46:40.136Z,4.27
2018-02-18T21:49:08.546Z,3.57
2018-02-18T21:51:36.188Z,4.63
2018-02-18T21:54:03.848Z,3.93
2018-02-18T21:56:32.277Z,4.10
2018-02-18T21:58:59.926Z,3.90
2018-02-18T22:01:27.654Z,4.07
2018-02-18T22:03:55.338Z,4.20
2018-02-18T22:06:23.003Z,3.63
2018-02-18T22:08:50.703Z,4.00
2018-02-18T22:11:19.163Z,3.70
2018-02-18T22:13:46.913Z,3.50
2018-02-18T22:16:14.587Z,5.03
2018-02-18T22:18:42.228Z,3.70
2018-02-18T22:21:09.887Z,3.73
2018-02-18T22:23:37.531Z,3.90
2018-02-18T22:26:05.200Z,3.93
2018-02-18T22:28:32.873Z,3.80
2018-02-18T22:31:00.535Z,3.67
2018-02-18T22:33:28.171Z,4.13
2018-02-18T22:35:55.856Z,3.60
2018-02-18T22:38:23.504Z,4.30
2018-02-18T22:40:51.209Z,4.20
2018-02-18T22:43:18.885Z,3.50
2018-02-18T22:45:47.296Z,3.63
2018-02-18T22:48:14.947Z,4.30
2018-02-18T22:50:42.629Z,4.07
2018-02-18T22:53:10.275Z,3.83
2018-02-18T22:55:37.915Z,4.37
2018-02-18T22:58:06.333Z,4.57
2018-02-18T23:00:33.997Z,4.97
2018-02-18T23:03:01.641Z,4.30
2018-02-18T23:05:34.858Z,4.00
2018-02-18T23:08:02.500Z,3.90
2018-02-18T23:10:30.140Z,4.23
2018-02-18T23:12:57.778Z,4.10
2018-02-18T23:15:26.207Z,3.93
2018-02-18T23:17:53.888Z,4.60
2018-02-18T23:20:21.559Z,4.27
2018-02-18T23:22:49.204Z,4.00
2018-02-18T23:25:16.850Z,4.27
2018-02-18T23:27:44.501Z,4.20
2018-02-18T23:30:12.137Z,4.50
2018-02-18T23:32:39.766Z,4.20
2018-02-18T23:35:07.441Z,3.93
2018-02-18T23:37:35.843Z,4.27
2018-02-18T23:40:03.518Z,3.77
2018-02-18T23:42:31.160Z,3.53
2018-02-18T23:44:58.824Z,3.97
2018-02-18T23:47:27.232Z,4.43
2018-02-18T23:49:55.314Z,4.10
2018-02-18T23:52:22.963Z,4.00
2018-02-18T23:54:50.628Z,3.93
2018-02-18T23:57:18.279Z,4.10
2018-02-18T23:59:45.949Z,3.90
